PWSweather.com
Personal Weather Stations
Station Observations
MACKBIG
Historic Main Street, Unionville, ON L3R6A5

Historic Main StreetUnionville, ON L3R6A5

Lat: 43.875506, Lon: -79.312903

Elevation: 590

Station Type: Davis VP2 + 6163

http://www.mackweather.com

Latest ConditionsUpdated 3:00:05 PM EDT Thursday, Mar 26, 2015
Currently Today's Max Today's Min Today's Average
Temperature 42.1°F5.6°C 42.1°F5.6°C 36.0°F2.2°C 38.3°F3.5°C
Dew Point 36.7°F2.6°C 39.7°F4.3°C 32.2°F0.1°C 34.5°F1.4°C
Winds 1.0 mph W1.6 kmh W 9.0 mph WNW14.5 kmh WNW - 1.5 mph 2.4 kmh
Wind Gusts 3.0 mph4.8 kmh 14.0 mph22.5 kmh - -
Humidity 81% 93% 81% 86%
Pressure 29.74 in1007.1 mb 29.91 in1012.9 mb 29.74 in1007.1 mb -
Hour Temp Dew Point Humidity Winds Wind Gusts Pressure Precip Precip Rate Daily Precip Total
03:00 PM 42.1°F5.6°C 36.7°F2.6°C 81% 1.0 mph W1.6 kmh W 3.0 mph4.8 kmh 29.74 in1007.1 mb - 0.00 in0.0 mm 0.00 in0.0 mm
02:50 PM 41.9°F5.5°C 36.8°F2.7°C 82% 1.0 mph SW1.6 kmh SW -- 29.74 in1007.1 mb - 0.00 in0.0 mm 0.00 in0.0 mm
02:40 PM 41.7°F5.4°C 37.2°F2.9°C 84% 2.0 mph WSW3.2 kmh WSW 3.0 mph4.8 kmh 29.75 in1007.5 mb - 0.00 in0.0 mm 0.00 in0.0 mm
02:30 PM 41.3°F5.2°C 36.8°F2.7°C 84% 2.0 mph WSW3.2 kmh WSW 3.0 mph4.8 kmh 29.75 in1007.5 mb - 0.00 in0.0 mm 0.00 in0.0 mm
02:20 PM 41.0°F5.0°C 36.8°F2.7°C 85% 2.0 mph SW3.2 kmh SW 3.0 mph4.8 kmh 29.75 in1007.5 mb - 0.00 in0.0 mm 0.00 in0.0 mm
02:10 PM 40.8°F4.9°C 36.9°F2.7°C 86% 5.0 mph SW8.0 kmh SW 6.0 mph9.7 kmh 29.75 in1007.5 mb - 0.00 in0.0 mm 0.00 in0.0 mm
02:00 PM 40.3°F4.6°C 36.7°F2.6°C 87% 5.0 mph SW8.0 kmh SW 8.0 mph12.9 kmh 29.76 in1007.8 mb - 0.00 in0.0 mm 0.00 in0.0 mm
01:50 PM 39.8°F4.3°C 36.5°F2.5°C 88% 3.0 mph SW4.8 kmh SW 5.0 mph8.0 kmh 29.77 in1008.1 mb - 0.00 in0.0 mm 0.00 in0.0 mm
01:40 PM 39.3°F4.1°C 36.0°F2.2°C 88% Calm Calm 3.0 mph4.8 kmh 29.77 in1008.1 mb - 0.00 in0.0 mm 0.00 in0.0 mm
01:30 PM 39.1°F3.9°C 35.5°F1.9°C 87% 2.0 mph SW3.2 kmh SW 3.0 mph4.8 kmh 29.77 in1008.1 mb - 0.00 in0.0 mm 0.00 in0.0 mm
01:20 PM 39.1°F3.9°C 35.9°F2.2°C 88% 2.0 mph SW3.2 kmh SW 3.0 mph4.8 kmh 29.78 in1008.5 mb - 0.00 in0.0 mm 0.00 in0.0 mm
01:10 PM 38.9°F3.8°C 35.7°F2.1°C 88% 3.0 mph SW4.8 kmh SW 5.0 mph8.0 kmh 29.77 in1008.1 mb - 0.00 in0.0 mm 0.00 in0.0 mm
01:00 PM 38.8°F3.8°C 35.3°F1.8°C 87% 2.0 mph SW3.2 kmh SW 3.0 mph4.8 kmh 29.78 in1008.5 mb - 0.00 in0.0 mm 0.00 in0.0 mm
12:50 PM 38.5°F3.6°C 35.2°F1.8°C 88% 5.0 mph SW8.0 kmh SW 8.0 mph12.9 kmh 29.78 in1008.5 mb - 0.00 in0.0 mm 0.00 in0.0 mm
12:40 PM 38.2°F3.4°C 34.7°F1.5°C 87% 3.0 mph SSW4.8 kmh SSW 6.0 mph9.7 kmh 29.78 in1008.5 mb - 0.00 in0.0 mm 0.00 in0.0 mm
12:30 PM 38.3°F3.5°C 34.5°F1.4°C 86% 1.0 mph S1.6 kmh S 3.0 mph4.8 kmh 29.79 in1008.8 mb - 0.00 in0.0 mm 0.00 in0.0 mm
12:20 PM 38.7°F3.7°C 34.6°F1.4°C 85% 1.0 mph SSW1.6 kmh SSW 5.0 mph8.0 kmh 29.79 in1008.8 mb - 0.00 in0.0 mm 0.00 in0.0 mm
12:10 PM 38.9°F3.8°C 34.5°F1.4°C 84% 1.0 mph SW1.6 kmh SW 5.0 mph8.0 kmh 29.80 in1009.1 mb - 0.00 in0.0 mm 0.00 in0.0 mm
12:00 PM 39.3°F4.1°C 34.3°F1.3°C 82% 2.0 mph SSW3.2 kmh SSW 3.0 mph4.8 kmh 29.79 in1008.8 mb - 0.00 in0.0 mm 0.00 in0.0 mm
11:50 AM 39.5°F4.2°C 34.5°F1.4°C 82% 3.0 mph SW4.8 kmh SW 3.0 mph4.8 kmh 29.80 in1009.1 mb - 0.00 in0.0 mm 0.00 in0.0 mm
11:40 AM 39.4°F4.1°C 34.4°F1.3°C 82% 2.0 mph WSW3.2 kmh WSW 5.0 mph8.0 kmh 29.80 in1009.1 mb - 0.00 in0.0 mm 0.00 in0.0 mm
11:30 AM 39.1°F3.9°C 34.1°F1.2°C 82% Calm Calm -- 29.79 in1008.8 mb - 0.00 in0.0 mm 0.00 in0.0 mm
11:20 AM 38.9°F3.8°C 34.2°F1.2°C 83% 2.0 mph SW3.2 kmh SW 2.0 mph3.2 kmh 29.79 in1008.8 mb - 0.00 in0.0 mm 0.00 in0.0 mm
11:10 AM 38.8°F3.8°C 34.1°F1.2°C 83% Calm Calm -- 29.80 in1009.1 mb - 0.00 in0.0 mm 0.00 in0.0 mm
11:00 AM 38.7°F3.7°C 34.0°F1.1°C 83% Calm Calm -- 29.80 in1009.1 mb - 0.00 in0.0 mm 0.00 in0.0 mm
10:50 AM 38.7°F3.7°C 34.0°F1.1°C 83% Calm Calm -- 29.81 in1009.5 mb - 0.00 in0.0 mm 0.00 in0.0 mm
10:40 AM 38.6°F3.7°C 33.9°F1.1°C 83% 1.0 mph SW1.6 kmh SW 3.0 mph4.8 kmh 29.81 in1009.5 mb - 0.00 in0.0 mm 0.00 in0.0 mm
10:30 AM 38.5°F3.6°C 33.8°F1.0°C 83% 2.0 mph SW3.2 kmh SW 5.0 mph8.0 kmh 29.82 in1009.8 mb - 0.00 in0.0 mm 0.00 in0.0 mm
10:20 AM 38.4°F3.6°C 34.0°F1.1°C 84% 1.0 mph SW1.6 kmh SW 3.0 mph4.8 kmh 29.82 in1009.8 mb - 0.00 in0.0 mm 0.00 in0.0 mm
10:10 AM 38.3°F3.5°C 33.9°F1.1°C 84% Calm Calm -- 29.83 in1010.2 mb - 0.00 in0.0 mm 0.00 in0.0 mm
10:00 AM 38.3°F3.5°C 33.9°F1.1°C 84% Calm Calm 1.0 mph1.6 kmh 29.83 in1010.2 mb - 0.00 in0.0 mm 0.00 in0.0 mm
09:50 AM 38.2°F3.4°C 33.8°F1.0°C 84% 2.0 mph SW3.2 kmh SW 5.0 mph8.0 kmh 29.84 in1010.5 mb - 0.00 in0.0 mm 0.00 in0.0 mm
09:40 AM 38.2°F3.4°C 33.8°F1.0°C 84% 2.0 mph WSW3.2 kmh WSW 3.0 mph4.8 kmh 29.85 in1010.8 mb - 0.00 in0.0 mm 0.00 in0.0 mm
09:30 AM 38.1°F3.4°C 33.7°F0.9°C 84% Calm Calm -- 29.84 in1010.5 mb - 0.00 in0.0 mm 0.00 in0.0 mm
09:20 AM 38.0°F3.3°C 33.9°F1.1°C 85% Calm Calm 1.0 mph1.6 kmh 29.84 in1010.5 mb - 0.00 in0.0 mm 0.00 in0.0 mm
09:10 AM 37.9°F3.3°C 33.8°F1.0°C 85% 2.0 mph SW3.2 kmh SW 3.0 mph4.8 kmh 29.84 in1010.5 mb - 0.00 in0.0 mm 0.00 in0.0 mm
09:00 AM 37.8°F3.2°C 33.7°F0.9°C 85% 3.0 mph SW4.8 kmh SW 3.0 mph4.8 kmh 29.85 in1010.8 mb - 0.00 in0.0 mm 0.00 in0.0 mm
08:50 AM 37.5°F3.1°C 33.7°F0.9°C 86% 3.0 mph SW4.8 kmh SW 5.0 mph8.0 kmh 29.85 in1010.8 mb - 0.00 in0.0 mm 0.00 in0.0 mm
08:40 AM 37.1°F2.8°C 33.3°F0.7°C 86% 3.0 mph SW4.8 kmh SW 8.0 mph12.9 kmh 29.85 in1010.8 mb - 0.00 in0.0 mm 0.00 in0.0 mm
08:30 AM 36.6°F2.6°C 33.1°F0.6°C 87% Calm Calm 3.0 mph4.8 kmh 29.86 in1011.2 mb - 0.00 in0.0 mm 0.00 in0.0 mm
08:20 AM 36.1°F2.3°C 32.3°F0.2°C 86% 1.0 mph WSW1.6 kmh WSW 2.0 mph3.2 kmh 29.85 in1010.8 mb - 0.00 in0.0 mm 0.00 in0.0 mm
08:10 AM 36.0°F2.2°C 32.2°F0.1°C 86% Calm Calm -- 29.84 in1010.5 mb - 0.00 in0.0 mm 0.00 in0.0 mm
08:00 AM 36.0°F2.2°C 32.3°F0.2°C 86% Calm Calm -- 29.83 in1010.2 mb - 0.00 in0.0 mm 0.00 in0.0 mm
07:50 AM 36.1°F2.3°C 32.3°F0.2°C 86% Calm Calm -- 29.83 in1010.2 mb - 0.00 in0.0 mm 0.00 in0.0 mm
07:40 AM 36.3°F2.4°C 32.2°F0.1°C 85% Calm Calm -- 29.84 in1010.5 mb - 0.00 in0.0 mm 0.00 in0.0 mm
07:30 AM 36.4°F2.4°C 32.3°F0.2°C 85% Calm Calm -- 29.83 in1010.2 mb 0.00 in0.0 mm 0.00 in0.0 mm 0.00 in0.0 mm
07:20 AM 36.5°F2.5°C 32.4°F0.2°C 85% Calm Calm -- 29.84 in1010.5 mb 0.00 in0.0 mm 0.00 in0.0 mm 0.00 in0.0 mm
07:10 AM 36.6°F2.6°C 32.5°F0.3°C 85% Calm Calm -- 29.83 in1010.2 mb 0.00 in0.0 mm 0.00 in0.0 mm 0.00 in0.0 mm
07:00 AM 36.8°F2.7°C 32.7°F0.4°C 85% Calm Calm -- 29.84 in1010.5 mb 0.00 in0.0 mm 0.00 in0.0 mm 0.00 in0.0 mm
06:50 AM 36.9°F2.7°C 32.5°F0.3°C 84% Calm Calm -- 29.84 in1010.5 mb 0.00 in0.0 mm 0.00 in0.0 mm 0.00 in0.0 mm
06:40 AM 37.0°F2.8°C 32.6°F0.3°C 84% Calm Calm -- 29.84 in1010.5 mb 0.00 in0.0 mm 0.00 in0.0 mm 0.00 in0.0 mm
06:30 AM 37.1°F2.8°C 32.7°F0.4°C 84% Calm Calm -- 29.85 in1010.8 mb 0.00 in0.0 mm 0.00 in0.0 mm 0.00 in0.0 mm
06:20 AM 37.2°F2.9°C 32.8°F0.4°C 84% Calm Calm -- 29.86 in1011.2 mb 0.00 in0.0 mm 0.00 in0.0 mm 0.00 in0.0 mm
06:10 AM 37.3°F2.9°C 32.6°F0.3°C 83% Calm Calm -- 29.87 in1011.5 mb 0.00 in0.0 mm 0.00 in0.0 mm 0.00 in0.0 mm
06:00 AM 37.4°F3.0°C 32.7°F0.4°C 83% Calm Calm -- 29.87 in1011.5 mb 0.00 in0.0 mm 0.00 in0.0 mm 0.00 in0.0 mm
05:50 AM 37.5°F3.1°C 32.8°F0.4°C 83% Calm Calm -- 29.87 in1011.5 mb 0.00 in0.0 mm 0.00 in0.0 mm 0.00 in0.0 mm
05:40 AM 37.6°F3.1°C 32.9°F0.5°C 83% Calm Calm -- 29.87 in1011.5 mb 0.00 in0.0 mm 0.00 in0.0 mm 0.00 in0.0 mm
05:30 AM 37.8°F3.2°C 33.1°F0.6°C 83% Calm Calm -- 29.87 in1011.5 mb 0.00 in0.0 mm 0.00 in0.0 mm 0.00 in0.0 mm
05:20 AM 38.0°F3.3°C 33.3°F0.7°C 83% Calm Calm -- 29.87 in1011.5 mb 0.00 in0.0 mm 0.00 in0.0 mm 0.00 in0.0 mm
05:10 AM 38.1°F3.4°C 33.4°F0.8°C 83% 1.0 mph W1.6 kmh W 3.0 mph4.8 kmh 29.88 in1011.9 mb 0.00 in0.0 mm 0.00 in0.0 mm 0.00 in0.0 mm
05:00 AM 38.1°F3.4°C 33.4°F0.8°C 83% 1.0 mph W1.6 kmh W 2.0 mph3.2 kmh 29.88 in1011.9 mb 0.00 in0.0 mm 0.00 in0.0 mm 0.00 in0.0 mm
04:50 AM 38.1°F3.4°C 33.7°F0.9°C 84% 2.0 mph W3.2 kmh W 5.0 mph8.0 kmh 29.88 in1011.9 mb 0.00 in0.0 mm 0.00 in0.0 mm 0.00 in0.0 mm
04:40 AM 38.1°F3.4°C 33.7°F0.9°C 84% 1.0 mph WNW1.6 kmh WNW 3.0 mph4.8 kmh 29.89 in1012.2 mb 0.00 in0.0 mm 0.00 in0.0 mm 0.00 in0.0 mm
04:30 AM 38.1°F3.4°C 33.7°F0.9°C 84% 2.0 mph WSW3.2 kmh WSW 2.0 mph3.2 kmh 29.90 in1012.5 mb 0.00 in0.0 mm 0.00 in0.0 mm 0.00 in0.0 mm
04:20 AM 38.0°F3.3°C 33.9°F1.1°C 85% 3.0 mph WSW4.8 kmh WSW 3.0 mph4.8 kmh 29.90 in1012.5 mb 0.00 in0.0 mm 0.00 in0.0 mm 0.00 in0.0 mm
04:10 AM 37.9°F3.3°C 33.8°F1.0°C 85% 1.0 mph WSW1.6 kmh WSW 3.0 mph4.8 kmh 29.90 in1012.5 mb 0.00 in0.0 mm 0.00 in0.0 mm 0.00 in0.0 mm
04:00 AM 37.7°F3.2°C 33.9°F1.1°C 86% 2.0 mph WSW3.2 kmh WSW 5.0 mph8.0 kmh 29.90 in1012.5 mb 0.00 in0.0 mm 0.00 in0.0 mm 0.00 in0.0 mm
03:50 AM 37.5°F3.1°C 34.0°F1.1°C 87% 2.0 mph WSW3.2 kmh WSW 5.0 mph8.0 kmh 29.90 in1012.5 mb 0.00 in0.0 mm 0.00 in0.0 mm 0.00 in0.0 mm
03:40 AM 37.4°F3.0°C 34.2°F1.2°C 88% 3.0 mph WSW4.8 kmh WSW 3.0 mph4.8 kmh 29.90 in1012.5 mb 0.00 in0.0 mm 0.00 in0.0 mm 0.00 in0.0 mm
03:30 AM 37.3°F2.9°C 34.1°F1.2°C 88% 3.0 mph WSW4.8 kmh WSW 3.0 mph4.8 kmh 29.91 in1012.9 mb 0.00 in0.0 mm 0.00 in0.0 mm 0.00 in0.0 mm
03:20 AM 37.3°F2.9°C 34.4°F1.3°C 89% 2.0 mph WSW3.2 kmh WSW 6.0 mph9.7 kmh 29.89 in1012.2 mb 0.00 in0.0 mm 0.00 in0.0 mm 0.00 in0.0 mm
03:10 AM 37.4°F3.0°C 34.5°F1.4°C 89% Calm Calm -- 29.89 in1012.2 mb 0.00 in0.0 mm 0.00 in0.0 mm 0.00 in0.0 mm
03:00 AM 37.4°F3.0°C 34.5°F1.4°C 89% Calm Calm -- 29.89 in1012.2 mb 0.00 in0.0 mm 0.00 in0.0 mm 0.00 in0.0 mm
02:50 AM 37.6°F3.1°C 34.6°F1.4°C 89% Calm Calm -- 29.90 in1012.5 mb 0.00 in0.0 mm 0.00 in0.0 mm 0.00 in0.0 mm
02:40 AM 37.7°F3.2°C 34.8°F1.6°C 89% 2.0 mph W3.2 kmh W 5.0 mph8.0 kmh 29.90 in1012.5 mb 0.00 in0.0 mm 0.00 in0.0 mm 0.00 in0.0 mm
02:30 AM 37.9°F3.3°C 35.2°F1.8°C 90% Calm Calm -- 29.91 in1012.9 mb 0.00 in0.0 mm 0.00 in0.0 mm 0.00 in0.0 mm
02:20 AM 38.0°F3.3°C 35.3°F1.8°C 90% 1.0 mph W1.6 kmh W 5.0 mph8.0 kmh 29.91 in1012.9 mb 0.00 in0.0 mm 0.00 in0.0 mm 0.00 in0.0 mm
02:10 AM 38.1°F3.4°C 35.7°F2.1°C 91% Calm Calm -- 29.91 in1012.9 mb 0.00 in0.0 mm 0.00 in0.0 mm 0.00 in0.0 mm
02:00 AM 38.2°F3.4°C 35.8°F2.1°C 91% 1.0 mph W1.6 kmh W 2.0 mph3.2 kmh 29.91 in1012.9 mb 0.00 in0.0 mm 0.00 in0.0 mm 0.00 in0.0 mm
01:50 AM 38.3°F3.5°C 35.9°F2.2°C 91% Calm Calm -- 29.91 in1012.9 mb 0.00 in0.0 mm 0.00 in0.0 mm 0.00 in0.0 mm
01:40 AM 38.3°F3.5°C 35.9°F2.2°C 91% 1.0 mph W1.6 kmh W 3.0 mph4.8 kmh 29.89 in1012.2 mb 0.00 in0.0 mm 0.00 in0.0 mm 0.00 in0.0 mm
01:30 AM 38.4°F3.6°C 36.0°F2.2°C 91% 2.0 mph W3.2 kmh W 3.0 mph4.8 kmh 29.89 in1012.2 mb 0.00 in0.0 mm 0.00 in0.0 mm 0.00 in0.0 mm
01:20 AM 38.5°F3.6°C 36.4°F2.4°C 92% 2.0 mph WSW3.2 kmh WSW 3.0 mph4.8 kmh 29.89 in1012.2 mb 0.00 in0.0 mm 0.00 in0.0 mm 0.00 in0.0 mm
01:10 AM 38.6°F3.7°C 36.5°F2.5°C 92% 2.0 mph WSW3.2 kmh WSW 5.0 mph8.0 kmh 29.89 in1012.2 mb 0.00 in0.0 mm 0.00 in0.0 mm 0.00 in0.0 mm
01:00 AM 38.7°F3.7°C 36.6°F2.6°C 92% 1.0 mph WNW1.6 kmh WNW 6.0 mph9.7 kmh 29.89 in1012.2 mb 0.00 in0.0 mm 0.00 in0.0 mm 0.00 in0.0 mm
12:50 AM 38.8°F3.8°C 36.9°F2.7°C 93% 3.0 mph WNW4.8 kmh WNW 5.0 mph8.0 kmh 29.90 in1012.5 mb 0.00 in0.0 mm 0.00 in0.0 mm 0.00 in0.0 mm
12:40 AM 39.0°F3.9°C 37.2°F2.9°C 93% 5.0 mph WNW8.0 kmh WNW 12.0 mph19.3 kmh 29.90 in1012.5 mb 0.00 in0.0 mm 0.00 in0.0 mm 0.00 in0.0 mm
12:30 AM 39.5°F4.2°C 37.6°F3.1°C 93% 6.0 mph W9.7 kmh W 7.0 mph11.3 kmh 29.90 in1012.5 mb 0.00 in0.0 mm 0.00 in0.0 mm 0.00 in0.0 mm
12:20 AM 40.1°F4.5°C 38.2°F3.4°C 93% 5.0 mph WNW8.0 kmh WNW 8.0 mph12.9 kmh 29.90 in1012.5 mb 0.00 in0.0 mm 0.00 in0.0 mm 0.00 in0.0 mm
12:10 AM 40.7°F4.8°C 38.8°F3.8°C 93% 7.0 mph WNW11.3 kmh WNW 12.0 mph19.3 kmh 29.89 in1012.2 mb 0.00 in0.0 mm 0.00 in0.0 mm 0.00 in0.0 mm
12:00 AM 41.6°F5.3°C 39.7°F4.3°C 93% 9.0 mph WNW14.5 kmh WNW 14.0 mph22.5 kmh 29.88 in1011.9 mb 0.00 in0.0 mm 0.00 in0.0 mm 0.00 in0.0 mm